Atlanta, Georgia
Traffic Map
Current Weather Conditions
Atlanta, Georgia
Overcast Light Rain
Overcast
43°
Feels Like: 40°
Wind Chill: 40° Ceiling: 7000
Heat Index: 43° Visibility: 10mi
Dew Point: 35° Wind: 5mph
Humidity: 74% Direction: 330° (NNW)
Pressure: 30.15in Gusts: 0mph
Raw Report DataKATL 200452Z 33004KT 10SM -RA BKN070 OVC090 06/02 A3015 RMK AO2 SLP212 P0001 T00610017 401280033
Traffic Incident Summary
Active as of:
Severity:
Category:
InformationThere was an issue retrieving the traffic information for this location. Please try a different location or try again shortly.
Advertisements
Track Severe Weather on mobile